Glasgow, Montana
Current Conditions -  °F | °C
As of 10:53 PM on Tuesday 27 Jan 2015 (Local Time) from KGGW Reporting Station
Clear Clear  
Wind Chill:   Ceiling: Unl
Heat Index:   Visibility: 10mi
Dew Point:   Wind: 3mph
Humidity: 83%   Direction: 270°W
Pressure: 29.76"   Gusts: NA
Location:  48.2°N, 106.64°W
Report Text: KGGW 280553Z AUTO 27003KT 10SM CLR 03/01 A2976 RMK AO2 SLP096 T00330006 10056 20011 55003
Loading
Personal Weather Stations






























Interactive Weather Map New forecast layout! Learn more

10-Day Weather Forecast

Advertisements
Track Severe Weather on mobile